Time;durP1;ratioP1;P1;durP2;ratioP2;P2;SDS_P1;SDS_P2;PMS_P1;PMS_P2;Temp;Humidity;BMP_temperature;BMP_pressure;BME280_temperature;BME280_humidity;BME280_pressure;Samples;Min_cycle;Max_cycle;Signal;HPM_P1;HPM_P2
2024/01/05 04:38:25;;;;;;;1999.90;999.90;;;;;;;;;;4958726;23;20301;-69
2024/01/05 04:41:10;;;;;;;1999.90;999.90;;;;;;;;;;4956412;28;20220;-68
2024/01/05 04:43:55;;;;;;;1999.90;999.90;;;;;;;;;;4964284;28;20290;-68
2024/01/05 04:46:39;;;;;;;1999.90;999.90;;;;;;;;;;4945164;28;20372;-68
2024/01/05 04:49:26;;;;;;;1999.90;999.90;;;;;;;;;;4937598;29;20617;-67
2024/01/05 04:52:11;;;;;;;1999.90;999.90;;;;;;;;;;4937017;29;20211;-67
2024/01/05 04:54:57;;;;;;;1999.90;999.90;;;;;;;;;;4942109;29;20224;-67
2024/01/05 04:57:42;;;;;;;1999.90;999.90;;;;;;;;;;4936653;29;20301;-66
2024/01/05 05:00:27;;;;;;;1999.90;999.90;;;;;;;;;;4949216;29;20265;-68
2024/01/05 05:03:13;;;;;;;1999.90;999.90;;;;;;;;;;4956002;29;20318;-67
2024/01/05 05:05:58;;;;;;;1999.90;999.90;;;;;;;;;;4948325;29;20215;-67
2024/01/05 05:08:43;;;;;;;1999.90;999.90;;;;;;;;;;4950011;29;20605;-67
2024/01/05 05:11:30;;;;;;;1999.90;999.90;;;;;;;;;;4948864;29;20223;-67
2024/01/05 05:14:15;;;;;;;1999.90;999.90;;;;;;;;;;4954606;29;21002;-68
2024/01/05 05:17:00;;;;;;;1999.90;999.90;;;;;;;;;;4948034;29;20303;-67
2024/01/05 05:19:44;;;;;;;1999.90;999.90;;;;;;;;;;4956013;29;20220;-67
2024/01/05 05:22:29;;;;;;;1999.90;999.90;;;;;;;;;;4949409;29;20209;-67
2024/01/05 05:25:14;;;;;;;1999.90;999.90;;;;;;;;;;4944332;29;20604;-68
2024/01/05 05:28:00;;;;;;;1999.90;999.90;;;;;;;;;;4940249;29;20224;-68
2024/01/05 05:30:45;;;;;;;1999.90;999.90;;;;;;;;;;4937670;29;20205;-70
2024/01/05 05:33:30;;;;;;;1999.90;999.90;;;;;;;;;;4941393;29;20228;-67
2024/01/05 05:36:15;;;;;;;1999.90;999.90;;;;;;;;;;4947472;28;20248;-70
2024/01/05 05:39:00;;;;;;;1999.90;999.90;;;;;;;;;;4955670;29;20208;-70
2024/01/05 05:41:45;;;;;;;1999.90;999.90;;;;;;;;;;4940596;29;20240;-70
2024/01/05 05:44:31;;;;;;;1999.90;999.90;;;;;;;;;;4939309;29;20212;-69
2024/01/05 05:47:16;;;;;;;1999.90;999.90;;;;;;;;;;4936276;29;20240;-69
2024/01/05 05:50:01;;;;;;;1999.90;999.90;;;;;;;;;;4943168;29;20340;-69
2024/01/05 05:52:46;;;;;;;1999.90;999.90;;;;;;;;;;4916252;29;20209;-69
2024/01/05 05:55:31;;;;;;;1999.90;999.90;;;;;;;;;;4946334;29;20205;-70
2024/01/05 05:58:16;;;;;;;1999.90;999.90;;;;;;;;;;4934874;28;20365;-69
2024/01/05 06:01:02;;;;;;;1999.90;999.90;;;;;;;;;;4943441;29;20590;-69
2024/01/05 06:03:47;;;;;;;1999.90;999.90;;;;;;;;;;4928947;29;20205;-69
2024/01/05 06:06:32;;;;;;;1999.90;999.90;;;;;;;;;;4933661;29;20623;-69
2024/01/05 06:09:17;;;;;;;1999.90;999.90;;;;;;;;;;4938170;29;20256;-70
2024/01/05 06:12:02;;;;;;;1999.90;999.90;;;;;;;;;;4939261;29;20224;-70
2024/01/05 06:14:47;;;;;;;1999.90;999.90;;;;;;;;;;4942769;29;20209;-69
2024/01/05 06:17:34;;;;;;;1999.90;999.90;;;;;;;;;;4917051;29;20318;-69
2024/01/05 06:20:19;;;;;;;1999.90;999.90;;;;;;;;;;4944042;29;20211;-69
2024/01/05 06:23:04;;;;;;;1999.90;999.90;;;;;;;;;;4950708;29;20212;-70
2024/01/05 06:25:49;;;;;;;1999.90;999.90;;;;;;;;;;4938204;29;20283;-70
2024/01/05 06:28:34;;;;;;;1999.90;999.90;;;;;;;;;;4933142;29;20224;-70
2024/01/05 06:31:19;;;;;;;1999.90;999.90;;;;;;;;;;4945261;29;20213;-70
2024/01/05 06:34:06;;;;;;;1999.90;999.90;;;;;;;;;;4941685;29;20225;-69
2024/01/05 06:36:50;;;;;;;1999.90;999.90;;;;;;;;;;4944090;28;20251;-69
2024/01/05 06:39:35;;;;;;;1999.90;999.90;;;;;;;;;;4942174;29;20349;-69
2024/01/05 06:42:21;;;;;;;1999.90;999.90;;;;;;;;;;4936763;29;20229;-69
2024/01/05 06:45:07;;;;;;;1999.90;999.90;;;;;;;;;;4937306;29;20215;-70
2024/01/05 06:47:52;;;;;;;1999.90;999.90;;;;;;;;;;4936591;29;20240;-69
2024/01/05 06:50:38;;;;;;;1999.90;999.90;;;;;;;;;;4934668;29;20296;-69
2024/01/05 06:53:23;;;;;;;1999.90;999.90;;;;;;;;;;4941265;29;20217;-70
2024/01/05 06:56:10;;;;;;;1999.90;999.90;;;;;;;;;;4943083;29;20302;-69
2024/01/05 06:58:55;;;;;;;1999.90;999.90;;;;;;;;;;4933335;29;20250;-69
2024/01/05 07:01:40;;;;;;;1999.90;999.90;;;;;;;;;;4936214;29;20338;-70
2024/01/05 07:04:25;;;;;;;1999.90;999.90;;;;;;;;;;4936359;29;20297;-69
2024/01/05 07:07:12;;;;;;;1999.90;999.90;;;;;;;;;;4936473;29;20277;-70
2024/01/05 07:09:58;;;;;;;1999.90;999.90;;;;;;;;;;4939761;29;20593;-70
2024/01/05 07:12:42;;;;;;;1999.90;999.90;;;;;;;;;;4916203;29;20889;-70
2024/01/05 07:15:29;;;;;;;1999.90;999.90;;;;;;;;;;4941721;29;20217;-70
2024/01/05 07:18:14;;;;;;;1999.90;999.90;;;;;;;;;;4935295;29;20732;-69
2024/01/05 07:21:03;;;;;;;1999.90;999.90;;;;;;;;;;4953913;29;20215;-70
2024/01/05 07:23:50;;;;;;;1999.90;999.90;;;;;;;;;;4941356;29;20636;-70
2024/01/05 07:26:35;;;;;;;1999.90;999.90;;;;;;;;;;4953771;28;20720;-70
2024/01/05 07:29:20;;;;;;;1999.90;999.90;;;;;;;;;;4953553;29;20311;-69
2024/01/05 07:32:05;;;;;;;1999.90;999.90;;;;;;;;;;4952895;29;20589;-70
2024/01/05 07:34:51;;;;;;;1999.90;999.90;;;;;;;;;;4948341;29;20212;-69
2024/01/05 07:37:37;;;;;;;1999.90;999.90;;;;;;;;;;4950233;28;20745;-69
2024/01/05 07:40:24;;;;;;;1999.90;999.90;;;;;;;;;;4951904;29;20712;-70
2024/01/05 07:43:10;;;;;;;1999.90;999.90;;;;;;;;;;4953675;29;20237;-69
2024/01/05 07:45:55;;;;;;;1999.90;999.90;;;;;;;;;;4936947;29;20224;-68
2024/01/05 07:48:41;;;;;;;1999.90;999.90;;;;;;;;;;4930504;29;20268;-70
2024/01/05 07:51:26;;;;;;;1999.90;999.90;;;;;;;;;;4934238;29;20216;-70
2024/01/05 07:54:11;;;;;;;1999.90;999.90;;;;;;;;;;4941973;29;20215;-70
2024/01/05 07:56:57;;;;;;;1999.90;999.90;;;;;;;;;;4939980;29;20236;-69
2024/01/05 07:59:42;;;;;;;1999.90;999.90;;;;;;;;;;4934152;29;20292;-70
2024/01/05 08:02:27;;;;;;;1999.90;999.90;;;;;;;;;;4934190;29;20227;-70
2024/01/05 08:05:12;;;;;;;1999.90;999.90;;;;;;;;;;4934147;29;20698;-70
2024/01/05 08:07:57;;;;;;;1999.90;999.90;;;;;;;;;;4942378;29;20232;-70
2024/01/05 08:10:42;;;;;;;1999.90;999.90;;;;;;;;;;4934766;29;20208;-70
2024/01/05 08:13:28;;;;;;;1999.90;999.90;;;;;;;;;;4936103;29;20609;-72
2024/01/05 08:16:13;;;;;;;1999.90;999.90;;;;;;;;;;4942587;29;20701;-70
2024/01/05 08:18:58;;;;;;;1999.90;999.90;;;;;;;;;;4936932;29;20338;-70
2024/01/05 08:21:43;;;;;;;1999.90;999.90;;;;;;;;;;4938018;29;20209;-69
2024/01/05 08:24:28;;;;;;;1999.90;999.90;;;;;;;;;;4932962;29;20220;-68
2024/01/05 08:27:14;;;;;;;1999.90;999.90;;;;;;;;;;4932114;29;20308;-69
2024/01/05 08:30:00;;;;;;;1999.90;999.90;;;;;;;;;;4935414;29;20236;-69
2024/01/05 08:32:47;;;;;;;1999.90;999.90;;;;;;;;;;4929300;29;20216;-69
2024/01/05 08:35:32;;;;;;;1999.90;999.90;;;;;;;;;;4936338;29;20209;-68
2024/01/05 08:38:17;;;;;;;1999.90;999.90;;;;;;;;;;4949211;29;20236;-68
2024/01/05 08:41:02;;;;;;;1999.90;999.90;;;;;;;;;;4937006;29;20422;-69
2024/01/05 08:43:47;;;;;;;1999.90;999.90;;;;;;;;;;4930161;29;20260;-69
2024/01/05 08:46:33;;;;;;;1999.90;999.90;;;;;;;;;;4938707;29;20625;-69
2024/01/05 08:49:18;;;;;;;1999.90;999.90;;;;;;;;;;4947455;29;20970;-70
2024/01/05 08:52:04;;;;;;;1999.90;999.90;;;;;;;;;;4938278;29;20342;-70
2024/01/05 08:54:49;;;;;;;1999.90;999.90;;;;;;;;;;4936642;29;20213;-70
2024/01/05 08:57:34;;;;;;;1999.90;999.90;;;;;;;;;;4928924;29;20240;-71
2024/01/05 09:00:20;;;;;;;1999.90;999.90;;;;;;;;;;4933017;29;20681;-71
2024/01/05 09:03:06;;;;;;;1999.90;999.90;;;;;;;;;;4935991;29;20228;-71
2024/01/05 09:05:51;;;;;;;1999.90;999.90;;;;;;;;;;4936289;29;20288;-71
2024/01/05 09:08:37;;;;;;;1999.90;999.90;;;;;;;;;;4956074;29;20225;-71
2024/01/05 09:11:22;;;;;;;1999.90;999.90;;;;;;;;;;4953290;29;20216;-70
2024/01/05 09:14:07;;;;;;;1999.90;999.90;;;;;;;;;;4956111;29;20582;-70
2024/01/05 09:16:52;;;;;;;1999.90;999.90;;;;;;;;;;4956157;28;20251;-70
2024/01/05 09:19:38;;;;;;;1999.90;999.90;;;;;;;;;;4955968;29;20231;-70
2024/01/05 09:22:23;;;;;;;1999.90;999.90;;;;;;;;;;4940051;29;20713;-71
2024/01/05 09:25:09;;;;;;;1999.90;999.90;;;;;;;;;;4941616;29;20217;-71
2024/01/05 09:27:54;;;;;;;1999.90;999.90;;;;;;;;;;4934423;29;20643;-71
2024/01/05 09:30:39;;;;;;;1999.90;999.90;;;;;;;;;;4938651;29;20217;-70
2024/01/05 09:33:24;;;;;;;1999.90;999.90;;;;;;;;;;4939804;29;20252;-70
2024/01/05 09:36:10;;;;;;;1999.90;999.90;;;;;;;;;;4936482;29;20213;-70
2024/01/05 09:38:55;;;;;;;1999.90;999.90;;;;;;;;;;4938330;29;20530;-70
2024/01/05 09:41:41;;;;;;;1999.90;999.90;;;;;;;;;;4934704;29;20818;-71
2024/01/05 09:44:26;;;;;;;1999.90;999.90;;;;;;;;;;4944408;29;20208;-70
2024/01/05 09:47:12;;;;;;;1999.90;999.90;;;;;;;;;;4936274;29;20256;-71
2024/01/05 09:49:59;;;;;;;1999.90;999.90;;;;;;;;;;4939861;29;20233;-71
2024/01/05 09:52:45;;;;;;;1999.90;999.90;;;;;;;;;;4934042;29;20220;-70
2024/01/05 09:55:32;;;;;;;1999.90;999.90;;;;;;;;;;4938429;29;20217;-70
2024/01/05 09:58:18;;;;;;;1999.90;999.90;;;;;;;;;;4935535;29;20235;-71
2024/01/05 10:01:07;;;;;;;1999.90;999.90;;;;;;;;;;4949066;29;20215;-70
2024/01/05 10:03:55;;;;;;;1999.90;999.90;;;;;;;;;;4940081;29;20216;-71
2024/01/05 10:06:40;;;;;;;1999.90;999.90;;;;;;;;;;4935689;29;20319;-71
2024/01/05 10:09:27;;;;;;;1999.90;999.90;;;;;;;;;;4932871;29;20428;-71
2024/01/05 10:12:12;;;;;;;1999.90;999.90;;;;;;;;;;4947447;29;20211;-71
2024/01/05 10:15:03;;;;;;;1999.90;999.90;;;;;;;;;;4947866;29;20732;-71
2024/01/05 10:17:47;;;;;;;1999.90;999.90;;;;;;;;;;4954147;28;20239;-71
2024/01/05 10:20:32;;;;;;;1999.90;999.90;;;;;;;;;;4946872;29;20341;-72
2024/01/05 10:23:17;;;;;;;1999.90;999.90;;;;;;;;;;4955775;29;20256;-70
2024/01/05 10:26:14;;;;;;;1999.90;999.90;;;;;;;;;;4945565;29;20211;-70
2024/01/05 10:29:12;;;;;;;1999.90;999.90;;;;;;;;;;4936870;29;20235;-68
2024/01/05 10:32:09;;;;;;;1999.90;999.90;;;;;;;;;;4947496;29;20715;-70
2024/01/05 10:34:54;;;;;;;1999.90;999.90;;;;;;;;;;4938171;29;20224;-70
2024/01/05 10:37:39;;;;;;;1999.90;999.90;;;;;;;;;;4945886;28;20342;-70
2024/01/05 10:40:25;;;;;;;1999.90;999.90;;;;;;;;;;4947084;29;20804;-71
2024/01/05 10:43:12;;;;;;;1999.90;999.90;;;;;;;;;;4935339;29;20295;-71
2024/01/05 10:45:57;;;;;;;1999.90;999.90;;;;;;;;;;4946598;28;20306;-68
2024/01/05 10:48:43;;;;;;;1999.90;999.90;;;;;;;;;;4938467;29;20236;-72
2024/01/05 10:51:28;;;;;;;1999.90;999.90;;;;;;;;;;4952834;29;20219;-71
2024/01/05 10:54:13;;;;;;;1999.90;999.90;;;;;;;;;;4948845;29;20231;-71
2024/01/05 10:56:58;;;;;;;1999.90;999.90;;;;;;;;;;4933742;29;20248;-71
2024/01/05 10:59:46;;;;;;;1999.90;999.90;;;;;;;;;;4932824;29;20256;-70
2024/01/05 11:02:32;;;;;;;1999.90;999.90;;;;;;;;;;4932819;29;20784;-72
2024/01/05 11:05:18;;;;;;;1999.90;999.90;;;;;;;;;;4932166;29;20341;-71
2024/01/05 11:08:03;;;;;;;1999.90;999.90;;;;;;;;;;4925077;29;20441;-71
2024/01/05 11:10:55;;;;;;;1999.90;999.90;;;;;;;;;;4933273;29;20342;-70
2024/01/05 11:13:58;;;;;;;1999.90;999.90;;;;;;;;;;4934540;29;20209;-70
2024/01/05 11:16:55;;;;;;;1999.90;999.90;;;;;;;;;;4951167;28;20234;-70
2024/01/05 11:19:52;;;;;;;1999.90;999.90;;;;;;;;;;4949150;29;20211;-70
2024/01/05 11:22:39;;;;;;;1999.90;999.90;;;;;;;;;;4937847;29;20203;-70
2024/01/05 11:25:24;;;;;;;1999.90;999.90;;;;;;;;;;4953729;29;20248;-72
2024/01/05 11:28:29;;;;;;;1999.90;999.90;;;;;;;;;;4936531;29;20365;-70
2024/01/05 11:31:34;;;;;;;1999.90;999.90;;;;;;;;;;4929552;29;20269;-71
2024/01/05 11:34:34;;;;;;;1999.90;999.90;;;;;;;;;;4948704;29;20216;-71
2024/01/05 11:37:28;;;;;;;1999.90;999.90;;;;;;;;;;4940603;29;20262;-71
2024/01/05 11:40:26;;;;;;;1999.90;999.90;;;;;;;;;;4941037;29;20399;-71
2024/01/05 11:43:26;;;;;;;1999.90;999.90;;;;;;;;;;4927186;29;20213;-70
2024/01/05 11:46:11;;;;;;;1999.90;999.90;;;;;;;;;;4932621;29;20207;-72
2024/01/05 11:48:56;;;;;;;1999.90;999.90;;;;;;;;;;4941027;28;20227;-71
2024/01/05 11:51:42;;;;;;;1999.90;999.90;;;;;;;;;;4938287;29;20729;-71
2024/01/05 11:54:27;;;;;;;1999.90;999.90;;;;;;;;;;4933875;29;20223;-71
2024/01/05 11:57:12;;;;;;;1999.90;999.90;;;;;;;;;;4930766;29;20979;-72
2024/01/05 11:59:57;;;;;;;1999.90;999.90;;;;;;;;;;4940063;29;20266;-71
2024/01/05 12:02:42;;;;;;;1999.90;999.90;;;;;;;;;;4956613;29;20228;-72
2024/01/05 12:05:27;;;;;;;1999.90;999.90;;;;;;;;;;4946931;29;20223;-71
2024/01/05 12:08:14;;;;;;;1999.90;999.90;;;;;;;;;;4950898;29;20232;-71
2024/01/05 12:11:00;;;;;;;1999.90;999.90;;;;;;;;;;4948988;29;20239;-71
2024/01/05 12:13:45;;;;;;;1999.90;999.90;;;;;;;;;;4957102;29;20224;-71
2024/01/05 12:16:30;;;;;;;1999.90;999.90;;;;;;;;;;4954977;28;20607;-71
2024/01/05 12:19:19;;;;;;;1999.90;999.90;;;;;;;;;;4945170;29;20224;-72
2024/01/05 12:22:04;;;;;;;1999.90;999.90;;;;;;;;;;4950513;29;20303;-71
2024/01/05 12:24:51;;;;;;;1999.90;999.90;;;;;;;;;;4939673;29;20578;-71
2024/01/05 12:27:36;;;;;;;1999.90;999.90;;;;;;;;;;4956543;28;20240;-71
2024/01/05 12:30:22;;;;;;;1999.90;999.90;;;;;;;;;;4943436;29;20604;-72
2024/01/05 12:33:07;;;;;;;1999.90;999.90;;;;;;;;;;4941726;29;20212;-71
2024/01/05 12:35:53;;;;;;;1999.90;999.90;;;;;;;;;;4954752;29;20224;-71
2024/01/05 12:38:38;;;;;;;1999.90;999.90;;;;;;;;;;4945117;29;20468;-71
2024/01/05 12:41:24;;;;;;;1999.90;999.90;;;;;;;;;;4945781;29;20212;-71
2024/01/05 12:44:10;;;;;;;1999.90;999.90;;;;;;;;;;4956486;29;20309;-71
2024/01/05 12:46:55;;;;;;;1999.90;999.90;;;;;;;;;;4948616;29;20743;-72
2024/01/05 12:49:40;;;;;;;1999.90;999.90;;;;;;;;;;4956165;29;20239;-72
2024/01/05 12:52:32;;;;;;;1999.90;999.90;;;;;;;;;;4946860;29;20216;-71
2024/01/05 12:55:26;;;;;;;1999.90;999.90;;;;;;;;;;4937053;29;20217;-72
2024/01/05 12:58:12;;;;;;;1999.90;999.90;;;;;;;;;;4937390;29;20328;-71
2024/01/05 13:01:03;;;;;;;1999.90;999.90;;;;;;;;;;4936933;29;20337;-71
2024/01/05 13:03:51;;;;;;;1999.90;999.90;;;;;;;;;;4935830;29;20756;-71
2024/01/05 13:06:38;;;;;;;1999.90;999.90;;;;;;;;;;4937071;29;20236;-72
2024/01/05 13:09:23;;;;;;;1999.90;999.90;;;;;;;;;;4942042;29;20489;-72
2024/01/05 13:12:08;;;;;;;1999.90;999.90;;;;;;;;;;4935220;29;20212;-72
2024/01/05 13:14:55;;;;;;;1999.90;999.90;;;;;;;;;;4941211;29;20219;-72
2024/01/05 13:17:42;;;;;;;1999.90;999.90;;;;;;;;;;4940675;28;20245;-71
2024/01/05 13:20:27;;;;;;;1999.90;999.90;;;;;;;;;;4938216;29;20255;-71
2024/01/05 13:23:13;;;;;;;1999.90;999.90;;;;;;;;;;4936749;29;20265;-72
2024/01/05 13:25:58;;;;;;;1999.90;999.90;;;;;;;;;;4936605;29;20289;-71
2024/01/05 13:28:45;;;;;;;1999.90;999.90;;;;;;;;;;4936318;29;20222;-71
2024/01/05 13:31:31;;;;;;;1999.90;999.90;;;;;;;;;;4944903;29;20353;-71
2024/01/05 13:34:16;;;;;;;1999.90;999.90;;;;;;;;;;4938037;29;20322;-71
2024/01/05 13:37:01;;;;;;;1999.90;999.90;;;;;;;;;;4941129;29;20612;-70
2024/01/05 13:39:46;;;;;;;1999.90;999.90;;;;;;;;;;4939597;29;20265;-71
2024/01/05 13:42:31;;;;;;;1999.90;999.90;;;;;;;;;;4935803;29;20212;-71
2024/01/05 13:45:16;;;;;;;1999.90;999.90;;;;;;;;;;4933782;29;20264;-71
2024/01/05 13:48:04;;;;;;;1999.90;999.90;;;;;;;;;;4943077;28;20235;-71
2024/01/05 13:50:49;;;;;;;1999.90;999.90;;;;;;;;;;4932582;29;20243;-70
2024/01/05 13:53:33;;;;;;;1999.90;999.90;;;;;;;;;;4941181;29;20713;-70
2024/01/05 13:56:18;;;;;;;1999.90;999.90;;;;;;;;;;4935705;29;20235;-71
2024/01/05 13:59:03;;;;;;;1999.90;999.90;;;;;;;;;;4934630;29;20292;-72
2024/01/05 14:01:48;;;;;;;1999.90;999.90;;;;;;;;;;4935485;29;20698;-70
2024/01/05 14:04:36;;;;;;;1999.90;999.90;;;;;;;;;;4935040;29;20260;-71
2024/01/05 14:07:21;;;;;;;1999.90;999.90;;;;;;;;;;4934719;29;20471;-71
2024/01/05 14:10:06;;;;;;;1999.90;999.90;;;;;;;;;;4933810;29;20224;-72
2024/01/05 14:12:51;;;;;;;1999.90;999.90;;;;;;;;;;4936159;29;20318;-71
2024/01/05 14:15:36;;;;;;;1999.90;999.90;;;;;;;;;;4944470;29;20209;-72
2024/01/05 14:18:21;;;;;;;1999.90;999.90;;;;;;;;;;4933747;29;20240;-72
2024/01/05 14:21:08;;;;;;;1999.90;999.90;;;;;;;;;;4938525;29;20220;-72
2024/01/05 14:23:53;;;;;;;1999.90;999.90;;;;;;;;;;4939153;29;20217;-73
2024/01/05 14:26:38;;;;;;;1999.90;999.90;;;;;;;;;;4933132;28;20228;-72
2024/01/05 14:29:23;;;;;;;1999.90;999.90;;;;;;;;;;4936682;29;20578;-71
2024/01/05 14:32:08;;;;;;;1999.90;999.90;;;;;;;;;;4938836;29;20217;-72
2024/01/05 14:34:53;;;;;;;1999.90;999.90;;;;;;;;;;4944169;29;20212;-72
2024/01/05 14:37:39;;;;;;;1999.90;999.90;;;;;;;;;;4937290;29;20945;-71
2024/01/05 14:40:25;;;;;;;1999.90;999.90;;;;;;;;;;4934886;29;20211;-71
2024/01/05 14:43:10;;;;;;;1999.90;999.90;;;;;;;;;;4939665;29;20708;-71
2024/01/05 14:45:55;;;;;;;1999.90;999.90;;;;;;;;;;4938965;29;20292;-72
2024/01/05 14:48:40;;;;;;;1999.90;999.90;;;;;;;;;;4933421;29;20212;-70
2024/01/05 14:51:25;;;;;;;1999.90;999.90;;;;;;;;;;4936387;29;20240;-71
2024/01/05 14:54:11;;;;;;;1999.90;999.90;;;;;;;;;;4933408;29;20299;-71
2024/01/05 14:56:56;;;;;;;1999.90;999.90;;;;;;;;;;4940642;28;20621;-70
2024/01/05 14:59:41;;;;;;;1999.90;999.90;;;;;;;;;;4933819;29;20385;-70
2024/01/05 15:02:26;;;;;;;1999.90;999.90;;;;;;;;;;4936424;29;20218;-71
2024/01/05 15:05:11;;;;;;;1999.90;999.90;;;;;;;;;;4939217;29;20732;-71
2024/01/05 15:07:56;;;;;;;1999.90;999.90;;;;;;;;;;4936720;29;20238;-71
2024/01/05 15:10:43;;;;;;;1999.90;999.90;;;;;;;;;;4938666;29;20717;-73
2024/01/05 15:13:28;;;;;;;1999.90;999.90;;;;;;;;;;4940238;29;20220;-72
2024/01/05 15:16:13;;;;;;;1999.90;999.90;;;;;;;;;;4938460;29;20250;-70
2024/01/05 15:18:59;;;;;;;1999.90;999.90;;;;;;;;;;4935009;29;20336;-71
2024/01/05 15:21:44;;;;;;;1999.90;999.90;;;;;;;;;;4935666;29;20937;-71
2024/01/05 15:24:29;;;;;;;1999.90;999.90;;;;;;;;;;4937256;28;20226;-72
2024/01/05 15:27:15;;;;;;;1999.90;999.90;;;;;;;;;;4935208;29;20248;-71
2024/01/05 15:30:00;;;;;;;1999.90;999.90;;;;;;;;;;4933434;29;20264;-70
2024/01/05 15:32:45;;;;;;;1999.90;999.90;;;;;;;;;;4934822;29;20224;-71
2024/01/05 15:35:33;;;;;;;1999.90;999.90;;;;;;;;;;4939356;29;20297;-72
2024/01/05 15:38:18;;;;;;;1999.90;999.90;;;;;;;;;;4938299;29;20243;-72
2024/01/05 15:41:03;;;;;;;1999.90;999.90;;;;;;;;;;4938839;29;20253;-72
2024/01/05 15:43:55;;;;;;;1999.90;999.90;;;;;;;;;;4934666;29;20219;-71
2024/01/05 15:46:40;;;;;;;1999.90;999.90;;;;;;;;;;4937645;28;20224;-73
2024/01/05 15:49:25;;;;;;;1999.90;999.90;;;;;;;;;;4934851;29;20216;-71
2024/01/05 15:52:10;;;;;;;1999.90;999.90;;;;;;;;;;4938344;29;20592;-72
2024/01/05 15:54:55;;;;;;;1999.90;999.90;;;;;;;;;;4942007;29;20220;-72
2024/01/05 15:57:40;;;;;;;1999.90;999.90;;;;;;;;;;4939474;28;20314;-71
2024/01/05 16:00:27;;;;;;;1999.90;999.90;;;;;;;;;;4933495;29;20209;-72
2024/01/05 16:03:12;;;;;;;1999.90;999.90;;;;;;;;;;4933949;29;20791;-71
2024/01/05 16:05:57;;;;;;;1999.90;999.90;;;;;;;;;;4933524;29;20209;-71
2024/01/05 16:08:42;;;;;;;1999.90;999.90;;;;;;;;;;4937225;29;20801;-71
2024/01/05 16:11:28;;;;;;;1999.90;999.90;;;;;;;;;;4932216;29;20233;-71
2024/01/05 16:14:14;;;;;;;1999.90;999.90;;;;;;;;;;4926506;29;20283;-70
2024/01/05 16:17:00;;;;;;;1999.90;999.90;;;;;;;;;;4937192;29;20229;-70
2024/01/05 16:19:45;;;;;;;1999.90;999.90;;;;;;;;;;4947010;29;20212;-72
2024/01/05 16:22:31;;;;;;;1999.90;999.90;;;;;;;;;;4933215;29;20698;-71
2024/01/05 16:25:15;;;;;;;1999.90;999.90;;;;;;;;;;4946895;29;20337;-72
2024/01/05 16:28:00;;;;;;;1999.90;999.90;;;;;;;;;;4939235;29;20231;-71
2024/01/05 16:30:47;;;;;;;1999.90;999.90;;;;;;;;;;4943317;29;20239;-70
2024/01/05 16:33:34;;;;;;;1999.90;999.90;;;;;;;;;;4935025;29;20216;-70
2024/01/05 16:36:20;;;;;;;1999.90;999.90;;;;;;;;;;4939758;28;20717;-70
2024/01/05 16:39:05;;;;;;;1999.90;999.90;;;;;;;;;;4949714;29;20209;-71
2024/01/05 16:41:51;;;;;;;1999.90;999.90;;;;;;;;;;4946423;29;20585;-71
2024/01/05 16:44:36;;;;;;;1999.90;999.90;;;;;;;;;;4943073;29;20219;-72
2024/01/05 16:47:22;;;;;;;1999.90;999.90;;;;;;;;;;4955280;28;20636;-70
2024/01/05 16:50:10;;;;;;;1999.90;999.90;;;;;;;;;;4954295;29;20316;-69
2024/01/05 16:52:55;;;;;;;1999.90;999.90;;;;;;;;;;4953821;29;20287;-70
2024/01/05 16:55:40;;;;;;;1999.90;999.90;;;;;;;;;;4956438;29;20336;-71
2024/01/05 16:58:25;;;;;;;1999.90;999.90;;;;;;;;;;4941385;29;20359;-71
2024/01/05 17:01:10;;;;;;;1999.90;999.90;;;;;;;;;;4941669;29;20209;-71
2024/01/05 17:03:57;;;;;;;1999.90;999.90;;;;;;;;;;4943803;29;20302;-71
2024/01/05 17:06:48;;;;;;;1999.90;999.90;;;;;;;;;;4938461;28;20309;-70
2024/01/05 17:09:34;;;;;;;1999.90;999.90;;;;;;;;;;4952429;29;20209;-71
2024/01/05 17:12:19;;;;;;;1999.90;999.90;;;;;;;;;;4939425;29;20607;-71
2024/01/05 17:15:05;;;;;;;1999.90;999.90;;;;;;;;;;4938087;29;20337;-72
2024/01/05 17:17:50;;;;;;;1999.90;999.90;;;;;;;;;;4937615;29;20283;-71
2024/01/05 17:20:36;;;;;;;1999.90;999.90;;;;;;;;;;4939147;29;20201;-71
2024/01/05 17:23:22;;;;;;;1999.90;999.90;;;;;;;;;;4947940;29;20223;-71
2024/01/05 17:26:07;;;;;;;1999.90;999.90;;;;;;;;;;4937355;29;20280;-70
2024/01/05 17:28:52;;;;;;;1999.90;999.90;;;;;;;;;;4940896;29;20611;-70
2024/01/05 17:31:37;;;;;;;1999.90;999.90;;;;;;;;;;4936957;29;20454;-70
2024/01/05 17:34:22;;;;;;;1999.90;999.90;;;;;;;;;;4939170;29;20353;-72
2024/01/05 17:37:09;;;;;;;1999.90;999.90;;;;;;;;;;4936835;29;20247;-70
2024/01/05 17:39:56;;;;;;;1999.90;999.90;;;;;;;;;;4935330;29;20700;-71
2024/01/05 17:42:41;;;;;;;1999.90;999.90;;;;;;;;;;4939342;29;20257;-71
2024/01/05 17:45:26;;;;;;;1999.90;999.90;;;;;;;;;;4942661;29;20693;-72
2024/01/05 17:48:11;;;;;;;1999.90;999.90;;;;;;;;;;4938673;28;20230;-70
2024/01/05 17:50:58;;;;;;;1999.90;999.90;;;;;;;;;;4934784;29;20232;-71
2024/01/05 17:53:43;;;;;;;1999.90;999.90;;;;;;;;;;4938128;29;20705;-70
2024/01/05 17:56:32;;;;;;;1999.90;999.90;;;;;;;;;;4938205;29;20607;-72
2024/01/05 17:59:20;;;;;;;1999.90;999.90;;;;;;;;;;4937403;29;20212;-69
2024/01/05 18:02:05;;;;;;;1999.90;999.90;;;;;;;;;;4941181;29;20205;-71
2024/01/05 18:04:50;;;;;;;1999.90;999.90;;;;;;;;;;4945073;29;20268;-71
2024/01/05 18:07:34;;;;;;;1999.90;999.90;;;;;;;;;;4934337;29;20735;-72
2024/01/05 18:10:19;;;;;;;1999.90;999.90;;;;;;;;;;4935671;29;20216;-71
2024/01/05 18:13:06;;;;;;;1999.90;999.90;;;;;;;;;;4936438;29;20274;-71
2024/01/05 18:15:51;;;;;;;1999.90;999.90;;;;;;;;;;4938711;29;20289;-70
2024/01/05 18:18:38;;;;;;;1999.90;999.90;;;;;;;;;;4937152;29;20204;-69
2024/01/05 18:21:24;;;;;;;1999.90;999.90;;;;;;;;;;4939435;29;20623;-71
2024/01/05 18:24:09;;;;;;;1999.90;999.90;;;;;;;;;;4940982;29;20212;-71
2024/01/05 18:26:54;;;;;;;1999.90;999.90;;;;;;;;;;4935952;29;20784;-70
2024/01/05 18:29:40;;;;;;;1999.90;999.90;;;;;;;;;;4940166;29;20331;-72
2024/01/05 18:32:25;;;;;;;1999.90;999.90;;;;;;;;;;4935913;29;20448;-70
2024/01/05 18:35:10;;;;;;;1999.90;999.90;;;;;;;;;;4938572;29;20215;-71
2024/01/05 18:37:55;;;;;;;1999.90;999.90;;;;;;;;;;4950416;28;20999;-71
2024/01/05 18:40:40;;;;;;;1999.90;999.90;;;;;;;;;;4939287;29;20283;-71
2024/01/05 18:43:25;;;;;;;1999.90;999.90;;;;;;;;;;4934965;29;20217;-69
2024/01/05 18:46:11;;;;;;;1999.90;999.90;;;;;;;;;;4935444;29;20228;-71
2024/01/05 18:48:56;;;;;;;1999.90;999.90;;;;;;;;;;4933859;29;20340;-71
2024/01/05 18:51:41;;;;;;;1999.90;999.90;;;;;;;;;;4938539;29;20228;-71
2024/01/05 18:54:26;;;;;;;1999.90;999.90;;;;;;;;;;4933210;29;20234;-71
2024/01/05 18:57:11;;;;;;;1999.90;999.90;;;;;;;;;;4936434;29;20291;-70
2024/01/05 18:59:56;;;;;;;1999.90;999.90;;;;;;;;;;4937926;29;20407;-70
2024/01/05 19:02:42;;;;;;;1999.90;999.90;;;;;;;;;;4933352;29;20729;-71
2024/01/05 19:05:27;;;;;;;1999.90;999.90;;;;;;;;;;4939664;29;20223;-71
2024/01/05 19:08:13;;;;;;;1999.90;999.90;;;;;;;;;;4932004;29;20243;-71
2024/01/05 19:10:58;;;;;;;1999.90;999.90;;;;;;;;;;4934603;29;20220;-71
2024/01/05 19:13:43;;;;;;;1999.90;999.90;;;;;;;;;;4935807;29;20873;-71
2024/01/05 19:16:28;;;;;;;1999.90;999.90;;;;;;;;;;4937610;29;20317;-71
2024/01/05 19:19:14;;;;;;;1999.90;999.90;;;;;;;;;;4933218;29;20300;-71
2024/01/05 19:21:59;;;;;;;1999.90;999.90;;;;;;;;;;4930784;29;20212;-70
2024/01/05 19:24:46;;;;;;;1999.90;999.90;;;;;;;;;;4938286;29;20208;-71
2024/01/05 19:27:31;;;;;;;1999.90;999.90;;;;;;;;;;4939818;28;20239;-72
2024/01/05 19:30:17;;;;;;;1999.90;999.90;;;;;;;;;;4937068;29;20219;-71
2024/01/05 19:33:02;;;;;;;1999.90;999.90;;;;;;;;;;4937893;29;20243;-72
2024/01/05 19:35:48;;;;;;;1999.90;999.90;;;;;;;;;;4935428;29;20212;-70
2024/01/05 19:38:33;;;;;;;1999.90;999.90;;;;;;;;;;4936640;29;20812;-71
2024/01/05 19:41:18;;;;;;;1999.90;999.90;;;;;;;;;;4936822;29;20220;-72
2024/01/05 19:44:03;;;;;;;1999.90;999.90;;;;;;;;;;4937163;29;20215;-71
2024/01/05 19:46:49;;;;;;;1999.90;999.90;;;;;;;;;;4941385;28;20615;-70
2024/01/05 19:49:34;;;;;;;1999.90;999.90;;;;;;;;;;4937442;29;20209;-68
2024/01/05 19:52:20;;;;;;;1999.90;999.90;;;;;;;;;;4936990;29;20239;-71
2024/01/05 19:55:07;;;;;;;1999.90;999.90;;;;;;;;;;4940272;29;20265;-71
2024/01/05 19:57:52;;;;;;;1999.90;999.90;;;;;;;;;;4938347;29;20970;-71
2024/01/05 20:00:37;;;;;;;1999.90;999.90;;;;;;;;;;4937931;29;20220;-70
2024/01/05 20:03:22;;;;;;;1999.90;999.90;;;;;;;;;;4935615;29;20236;-70